sensor_id;sensor_type;location;lat;lon;timestamp;P1;durP1;ratioP1;P2;durP2;ratioP2
27505;SDS011;14939;43.596;1.320;2023-04-15T00:00:26;38.05;;;5.63;;
27505;SDS011;14939;43.596;1.320;2023-04-15T00:02:53;47.90;;;6.35;;
27505;SDS011;14939;43.596;1.320;2023-04-15T00:05:19;40.50;;;5.82;;
27505;SDS011;14939;43.596;1.320;2023-04-15T00:07:45;38.50;;;6.10;;
27505;SDS011;14939;43.596;1.320;2023-04-15T00:10:11;47.70;;;6.90;;
27505;SDS011;14939;43.596;1.320;2023-04-15T00:12:38;52.38;;;7.50;;
27505;SDS011;14939;43.596;1.320;2023-04-15T00:15:05;40.72;;;6.18;;
27505;SDS011;14939;43.596;1.320;2023-04-15T00:17:33;41.22;;;6.95;;
27505;SDS011;14939;43.596;1.320;2023-04-15T00:19:59;44.00;;;5.88;;
27505;SDS011;14939;43.596;1.320;2023-04-15T00:22:25;46.05;;;6.63;;
27505;SDS011;14939;43.596;1.320;2023-04-15T00:24:52;42.40;;;6.82;;
27505;SDS011;14939;43.596;1.320;2023-04-15T00:27:18;52.13;;;6.93;;
27505;SDS011;14939;43.596;1.320;2023-04-15T00:29:44;44.85;;;5.95;;
27505;SDS011;14939;43.596;1.320;2023-04-15T00:32:10;47.35;;;7.03;;
27505;SDS011;14939;43.596;1.320;2023-04-15T00:34:35;56.63;;;7.68;;
27505;SDS011;14939;43.596;1.320;2023-04-15T00:37:01;41.03;;;6.18;;
27505;SDS011;14939;43.596;1.320;2023-04-15T00:39:27;36.58;;;6.15;;
27505;SDS011;14939;43.596;1.320;2023-04-15T00:41:52;37.20;;;5.43;;
27505;SDS011;14939;43.596;1.320;2023-04-15T00:44:19;48.88;;;6.88;;
27505;SDS011;14939;43.596;1.320;2023-04-15T00:46:45;36.63;;;5.35;;
27505;SDS011;14939;43.596;1.320;2023-04-15T00:49:12;34.13;;;5.78;;
27505;SDS011;14939;43.596;1.320;2023-04-15T00:51:38;36.53;;;5.88;;
27505;SDS011;14939;43.596;1.320;2023-04-15T00:54:04;39.17;;;5.65;;
27505;SDS011;14939;43.596;1.320;2023-04-15T00:56:35;40.83;;;5.72;;
27505;SDS011;14939;43.596;1.320;2023-04-15T00:59:03;40.20;;;5.68;;
27505;SDS011;14939;43.596;1.320;2023-04-15T01:01:30;35.50;;;5.10;;
27505;SDS011;14939;43.596;1.320;2023-04-15T01:03:58;39.88;;;6.10;;
27505;SDS011;14939;43.596;1.320;2023-04-15T01:06:23;42.47;;;5.97;;
27505;SDS011;14939;43.596;1.320;2023-04-15T01:08:49;45.17;;;6.32;;
27505;SDS011;14939;43.596;1.320;2023-04-15T01:11:16;38.17;;;5.30;;
27505;SDS011;14939;43.596;1.320;2023-04-15T01:13:43;35.20;;;5.88;;
27505;SDS011;14939;43.596;1.320;2023-04-15T01:16:09;38.80;;;5.82;;
27505;SDS011;14939;43.596;1.320;2023-04-15T01:18:36;36.65;;;5.38;;
27505;SDS011;14939;43.596;1.320;2023-04-15T01:21:02;40.95;;;6.00;;
27505;SDS011;14939;43.596;1.320;2023-04-15T01:23:30;44.25;;;5.93;;
27505;SDS011;14939;43.596;1.320;2023-04-15T01:25:56;33.45;;;5.28;;
27505;SDS011;14939;43.596;1.320;2023-04-15T01:28:23;39.75;;;5.88;;
27505;SDS011;14939;43.596;1.320;2023-04-15T01:30:49;36.67;;;5.07;;
27505;SDS011;14939;43.596;1.320;2023-04-15T01:33:29;42.85;;;6.00;;
27505;SDS011;14939;43.596;1.320;2023-04-15T01:35:55;32.50;;;5.13;;
27505;SDS011;14939;43.596;1.320;2023-04-15T01:38:21;37.63;;;5.55;;
27505;SDS011;14939;43.596;1.320;2023-04-15T01:40:47;32.35;;;4.70;;
27505;SDS011;14939;43.596;1.320;2023-04-15T01:43:12;38.58;;;5.25;;
27505;SDS011;14939;43.596;1.320;2023-04-15T01:45:39;29.83;;;4.93;;
27505;SDS011;14939;43.596;1.320;2023-04-15T01:48:05;36.88;;;4.68;;
27505;SDS011;14939;43.596;1.320;2023-04-15T01:50:31;34.42;;;5.00;;
27505;SDS011;14939;43.596;1.320;2023-04-15T01:52:56;30.20;;;3.97;;
27505;SDS011;14939;43.596;1.320;2023-04-15T01:55:22;32.28;;;4.15;;
27505;SDS011;14939;43.596;1.320;2023-04-15T01:57:48;26.35;;;3.88;;
27505;SDS011;14939;43.596;1.320;2023-04-15T02:00:14;21.35;;;3.78;;
27505;SDS011;14939;43.596;1.320;2023-04-15T02:02:40;31.33;;;4.35;;
27505;SDS011;14939;43.596;1.320;2023-04-15T02:05:06;29.83;;;3.70;;
27505;SDS011;14939;43.596;1.320;2023-04-15T02:07:32;27.98;;;4.78;;
27505;SDS011;14939;43.596;1.320;2023-04-15T02:09:57;37.88;;;4.40;;
27505;SDS011;14939;43.596;1.320;2023-04-15T02:12:23;32.28;;;3.72;;
27505;SDS011;14939;43.596;1.320;2023-04-15T02:14:49;29.38;;;4.13;;
27505;SDS011;14939;43.596;1.320;2023-04-15T02:17:15;23.65;;;3.65;;
27505;SDS011;14939;43.596;1.320;2023-04-15T02:19:41;24.90;;;3.97;;
27505;SDS011;14939;43.596;1.320;2023-04-15T02:22:07;20.52;;;2.60;;
27505;SDS011;14939;43.596;1.320;2023-04-15T02:24:33;28.42;;;3.55;;
27505;SDS011;14939;43.596;1.320;2023-04-15T02:26:59;18.92;;;2.70;;
27505;SDS011;14939;43.596;1.320;2023-04-15T02:29:25;23.73;;;3.47;;
27505;SDS011;14939;43.596;1.320;2023-04-15T02:31:51;20.13;;;2.65;;
27505;SDS011;14939;43.596;1.320;2023-04-15T02:34:17;21.23;;;3.30;;
27505;SDS011;14939;43.596;1.320;2023-04-15T02:36:43;21.20;;;3.13;;
27505;SDS011;14939;43.596;1.320;2023-04-15T02:39:08;19.40;;;3.15;;
27505;SDS011;14939;43.596;1.320;2023-04-15T02:41:35;19.70;;;2.70;;
27505;SDS011;14939;43.596;1.320;2023-04-15T02:44:00;21.95;;;3.50;;
27505;SDS011;14939;43.596;1.320;2023-04-15T02:46:26;25.00;;;4.05;;
27505;SDS011;14939;43.596;1.320;2023-04-15T02:48:52;28.60;;;4.05;;
27505;SDS011;14939;43.596;1.320;2023-04-15T02:51:21;31.38;;;4.63;;
27505;SDS011;14939;43.596;1.320;2023-04-15T02:53:47;30.38;;;4.15;;
27505;SDS011;14939;43.596;1.320;2023-04-15T02:56:13;27.50;;;3.95;;
27505;SDS011;14939;43.596;1.320;2023-04-15T02:58:41;27.15;;;3.65;;
27505;SDS011;14939;43.596;1.320;2023-04-15T03:01:07;28.88;;;3.25;;
27505;SDS011;14939;43.596;1.320;2023-04-15T03:03:33;22.63;;;3.35;;
27505;SDS011;14939;43.596;1.320;2023-04-15T03:05:59;19.80;;;2.90;;
27505;SDS011;14939;43.596;1.320;2023-04-15T03:08:25;17.75;;;2.45;;
27505;SDS011;14939;43.596;1.320;2023-04-15T03:10:50;15.25;;;2.55;;
27505;SDS011;14939;43.596;1.320;2023-04-15T03:13:17;12.43;;;2.42;;
27505;SDS011;14939;43.596;1.320;2023-04-15T03:15:44;13.18;;;1.98;;
27505;SDS011;14939;43.596;1.320;2023-04-15T03:18:11;10.15;;;1.85;;
27505;SDS011;14939;43.596;1.320;2023-04-15T03:20:37;5.13;;;1.20;;
27505;SDS011;14939;43.596;1.320;2023-04-15T03:23:02;8.70;;;1.88;;
27505;SDS011;14939;43.596;1.320;2023-04-15T03:25:28;7.85;;;1.50;;
27505;SDS011;14939;43.596;1.320;2023-04-15T03:27:54;8.15;;;1.65;;
27505;SDS011;14939;43.596;1.320;2023-04-15T03:30:19;9.07;;;1.70;;
27505;SDS011;14939;43.596;1.320;2023-04-15T03:32:45;10.73;;;1.58;;
27505;SDS011;14939;43.596;1.320;2023-04-15T03:35:11;10.93;;;2.00;;
27505;SDS011;14939;43.596;1.320;2023-04-15T03:37:37;17.02;;;2.50;;
27505;SDS011;14939;43.596;1.320;2023-04-15T03:40:02;20.73;;;2.72;;
27505;SDS011;14939;43.596;1.320;2023-04-15T03:42:28;14.95;;;2.40;;
27505;SDS011;14939;43.596;1.320;2023-04-15T03:44:54;14.80;;;2.22;;
27505;SDS011;14939;43.596;1.320;2023-04-15T03:47:19;17.17;;;2.28;;
27505;SDS011;14939;43.596;1.320;2023-04-15T03:49:45;18.60;;;3.15;;
27505;SDS011;14939;43.596;1.320;2023-04-15T03:52:11;18.27;;;2.33;;
27505;SDS011;14939;43.596;1.320;2023-04-15T03:54:36;18.58;;;2.88;;
27505;SDS011;14939;43.596;1.320;2023-04-15T03:57:02;22.25;;;3.05;;
27505;SDS011;14939;43.596;1.320;2023-04-15T03:59:28;13.73;;;2.80;;
27505;SDS011;14939;43.596;1.320;2023-04-15T04:01:53;19.05;;;3.05;;
27505;SDS011;14939;43.596;1.320;2023-04-15T04:04:19;25.25;;;3.55;;
27505;SDS011;14939;43.596;1.320;2023-04-15T04:06:45;23.05;;;3.95;;
27505;SDS011;14939;43.596;1.320;2023-04-15T04:09:10;19.10;;;2.92;;
27505;SDS011;14939;43.596;1.320;2023-04-15T04:11:36;17.73;;;2.88;;
27505;SDS011;14939;43.596;1.320;2023-04-15T04:14:02;26.30;;;3.10;;
27505;SDS011;14939;43.596;1.320;2023-04-15T04:16:27;22.17;;;2.92;;
27505;SDS011;14939;43.596;1.320;2023-04-15T04:18:53;18.95;;;3.20;;
27505;SDS011;14939;43.596;1.320;2023-04-15T04:21:19;28.17;;;3.22;;
27505;SDS011;14939;43.596;1.320;2023-04-15T04:23:45;19.70;;;2.95;;
27505;SDS011;14939;43.596;1.320;2023-04-15T04:26:11;28.55;;;3.30;;
27505;SDS011;14939;43.596;1.320;2023-04-15T04:28:36;21.48;;;3.13;;
27505;SDS011;14939;43.596;1.320;2023-04-15T04:31:05;23.42;;;2.80;;
27505;SDS011;14939;43.596;1.320;2023-04-15T04:33:31;26.85;;;3.58;;
27505;SDS011;14939;43.596;1.320;2023-04-15T04:35:57;19.45;;;3.33;;
27505;SDS011;14939;43.596;1.320;2023-04-15T04:38:23;22.30;;;3.60;;
27505;SDS011;14939;43.596;1.320;2023-04-15T04:40:49;23.77;;;2.97;;
27505;SDS011;14939;43.596;1.320;2023-04-15T04:43:15;25.08;;;3.55;;
27505;SDS011;14939;43.596;1.320;2023-04-15T04:45:40;27.95;;;3.30;;
27505;SDS011;14939;43.596;1.320;2023-04-15T04:48:06;31.67;;;4.25;;
27505;SDS011;14939;43.596;1.320;2023-04-15T04:50:34;25.75;;;4.10;;
27505;SDS011;14939;43.596;1.320;2023-04-15T04:53:00;26.98;;;3.80;;
27505;SDS011;14939;43.596;1.320;2023-04-15T04:55:26;26.70;;;3.45;;
27505;SDS011;14939;43.596;1.320;2023-04-15T04:57:52;31.88;;;4.00;;
27505;SDS011;14939;43.596;1.320;2023-04-15T05:00:18;21.33;;;3.30;;
27505;SDS011;14939;43.596;1.320;2023-04-15T05:02:44;27.20;;;3.40;;
27505;SDS011;14939;43.596;1.320;2023-04-15T05:05:10;28.00;;;3.80;;
27505;SDS011;14939;43.596;1.320;2023-04-15T05:07:37;20.83;;;3.35;;
27505;SDS011;14939;43.596;1.320;2023-04-15T05:10:03;29.73;;;3.83;;
27505;SDS011;14939;43.596;1.320;2023-04-15T05:12:30;22.52;;;3.10;;
27505;SDS011;14939;43.596;1.320;2023-04-15T05:14:56;16.05;;;2.78;;
27505;SDS011;14939;43.596;1.320;2023-04-15T05:17:21;24.83;;;2.53;;
27505;SDS011;14939;43.596;1.320;2023-04-15T05:19:47;23.05;;;3.05;;
27505;SDS011;14939;43.596;1.320;2023-04-15T05:22:13;19.67;;;3.63;;
27505;SDS011;14939;43.596;1.320;2023-04-15T05:24:38;20.35;;;2.72;;
27505;SDS011;14939;43.596;1.320;2023-04-15T05:27:04;14.27;;;2.90;;
27505;SDS011;14939;43.596;1.320;2023-04-15T05:29:30;16.98;;;2.28;;
27505;SDS011;14939;43.596;1.320;2023-04-15T05:31:56;17.40;;;2.17;;
27505;SDS011;14939;43.596;1.320;2023-04-15T05:34:21;20.70;;;2.83;;
27505;SDS011;14939;43.596;1.320;2023-04-15T05:36:47;20.83;;;2.78;;
27505;SDS011;14939;43.596;1.320;2023-04-15T05:39:13;19.50;;;2.90;;
27505;SDS011;14939;43.596;1.320;2023-04-15T05:41:38;18.58;;;2.47;;
27505;SDS011;14939;43.596;1.320;2023-04-15T05:44:04;17.77;;;2.47;;
27505;SDS011;14939;43.596;1.320;2023-04-15T05:46:30;16.15;;;2.67;;
27505;SDS011;14939;43.596;1.320;2023-04-15T05:48:55;16.83;;;2.55;;
27505;SDS011;14939;43.596;1.320;2023-04-15T05:51:21;13.13;;;2.30;;
27505;SDS011;14939;43.596;1.320;2023-04-15T05:53:47;17.30;;;2.13;;
27505;SDS011;14939;43.596;1.320;2023-04-15T05:56:12;16.85;;;2.40;;
27505;SDS011;14939;43.596;1.320;2023-04-15T05:58:38;14.00;;;2.10;;
27505;SDS011;14939;43.596;1.320;2023-04-15T06:01:04;15.45;;;2.17;;
27505;SDS011;14939;43.596;1.320;2023-04-15T06:03:29;16.80;;;2.40;;
27505;SDS011;14939;43.596;1.320;2023-04-15T06:05:55;11.32;;;1.75;;
27505;SDS011;14939;43.596;1.320;2023-04-15T06:08:21;11.52;;;2.30;;
27505;SDS011;14939;43.596;1.320;2023-04-15T06:10:46;12.10;;;2.10;;
27505;SDS011;14939;43.596;1.320;2023-04-15T06:13:12;18.13;;;1.98;;
27505;SDS011;14939;43.596;1.320;2023-04-15T06:15:38;17.20;;;1.90;;
27505;SDS011;14939;43.596;1.320;2023-04-15T06:18:03;16.55;;;2.10;;
27505;SDS011;14939;43.596;1.320;2023-04-15T06:20:29;17.20;;;2.42;;
27505;SDS011;14939;43.596;1.320;2023-04-15T06:22:55;11.45;;;2.20;;
27505;SDS011;14939;43.596;1.320;2023-04-15T06:25:21;16.42;;;2.28;;
27505;SDS011;14939;43.596;1.320;2023-04-15T06:27:48;22.48;;;2.25;;
27505;SDS011;14939;43.596;1.320;2023-04-15T06:30:13;13.55;;;2.20;;
27505;SDS011;14939;43.596;1.320;2023-04-15T06:32:39;12.15;;;2.05;;
27505;SDS011;14939;43.596;1.320;2023-04-15T06:35:05;15.48;;;3.33;;
27505;SDS011;14939;43.596;1.320;2023-04-15T06:37:31;15.93;;;2.15;;
27505;SDS011;14939;43.596;1.320;2023-04-15T06:39:56;12.82;;;1.60;;
27505;SDS011;14939;43.596;1.320;2023-04-15T06:42:22;6.45;;;1.10;;
27505;SDS011;14939;43.596;1.320;2023-04-15T06:44:48;2.28;;;0.80;;
27505;SDS011;14939;43.596;1.320;2023-04-15T06:47:14;5.03;;;0.80;;
27505;SDS011;14939;43.596;1.320;2023-04-15T06:49:40;2.65;;;1.00;;
27505;SDS011;14939;43.596;1.320;2023-04-15T06:52:07;6.20;;;0.90;;
27505;SDS011;14939;43.596;1.320;2023-04-15T06:54:33;4.10;;;0.88;;
27505;SDS011;14939;43.596;1.320;2023-04-15T06:56:59;5.40;;;1.25;;
27505;SDS011;14939;43.596;1.320;2023-04-15T06:59:24;4.15;;;0.80;;
27505;SDS011;14939;43.596;1.320;2023-04-15T07:01:51;5.20;;;1.35;;
27505;SDS011;14939;43.596;1.320;2023-04-15T07:04:17;8.82;;;1.42;;
27505;SDS011;14939;43.596;1.320;2023-04-15T07:06:42;6.53;;;1.50;;
27505;SDS011;14939;43.596;1.320;2023-04-15T07:09:08;7.63;;;1.55;;
27505;SDS011;14939;43.596;1.320;2023-04-15T07:11:34;4.18;;;1.38;;
27505;SDS011;14939;43.596;1.320;2023-04-15T07:14:00;9.45;;;2.28;;
27505;SDS011;14939;43.596;1.320;2023-04-15T07:16:26;8.68;;;1.70;;
27505;SDS011;14939;43.596;1.320;2023-04-15T07:18:52;7.97;;;1.38;;
27505;SDS011;14939;43.596;1.320;2023-04-15T07:21:18;10.18;;;1.70;;
27505;SDS011;14939;43.596;1.320;2023-04-15T07:23:43;8.05;;;1.90;;
27505;SDS011;14939;43.596;1.320;2023-04-15T07:26:09;5.60;;;1.40;;
27505;SDS011;14939;43.596;1.320;2023-04-15T07:28:35;5.70;;;1.27;;
27505;SDS011;14939;43.596;1.320;2023-04-15T07:31:00;11.88;;;1.80;;
27505;SDS011;14939;43.596;1.320;2023-04-15T07:33:26;8.98;;;1.58;;
27505;SDS011;14939;43.596;1.320;2023-04-15T07:35:52;10.60;;;1.88;;
27505;SDS011;14939;43.596;1.320;2023-04-15T07:38:18;15.27;;;2.08;;
27505;SDS011;14939;43.596;1.320;2023-04-15T07:40:43;12.18;;;1.83;;
27505;SDS011;14939;43.596;1.320;2023-04-15T07:43:10;11.68;;;1.80;;
27505;SDS011;14939;43.596;1.320;2023-04-15T07:45:37;9.52;;;1.63;;
27505;SDS011;14939;43.596;1.320;2023-04-15T07:48:03;14.63;;;1.95;;
27505;SDS011;14939;43.596;1.320;2023-04-15T07:50:29;11.82;;;1.88;;
27505;SDS011;14939;43.596;1.320;2023-04-15T07:52:55;12.07;;;2.20;;
27505;SDS011;14939;43.596;1.320;2023-04-15T07:55:21;10.75;;;2.25;;
27505;SDS011;14939;43.596;1.320;2023-04-15T07:57:48;13.07;;;1.80;;
27505;SDS011;14939;43.596;1.320;2023-04-15T08:00:14;16.52;;;2.40;;
27505;SDS011;14939;43.596;1.320;2023-04-15T08:02:41;19.50;;;2.30;;
27505;SDS011;14939;43.596;1.320;2023-04-15T08:05:07;11.85;;;2.10;;
27505;SDS011;14939;43.596;1.320;2023-04-15T08:07:36;13.25;;;1.98;;
27505;SDS011;14939;43.596;1.320;2023-04-15T08:10:02;11.27;;;2.00;;
27505;SDS011;14939;43.596;1.320;2023-04-15T08:12:28;15.75;;;2.35;;
27505;SDS011;14939;43.596;1.320;2023-04-15T08:14:54;12.65;;;1.90;;
27505;SDS011;14939;43.596;1.320;2023-04-15T08:17:21;15.13;;;2.20;;
27505;SDS011;14939;43.596;1.320;2023-04-15T08:19:47;16.13;;;1.88;;
27505;SDS011;14939;43.596;1.320;2023-04-15T08:22:13;14.43;;;1.80;;
27505;SDS011;14939;43.596;1.320;2023-04-15T08:24:39;15.35;;;1.95;;
27505;SDS011;14939;43.596;1.320;2023-04-15T08:27:04;17.95;;;2.10;;
27505;SDS011;14939;43.596;1.320;2023-04-15T08:29:31;16.35;;;2.10;;
27505;SDS011;14939;43.596;1.320;2023-04-15T08:31:58;12.80;;;1.92;;
27505;SDS011;14939;43.596;1.320;2023-04-15T08:34:25;9.20;;;2.00;;
27505;SDS011;14939;43.596;1.320;2023-04-15T08:36:51;14.82;;;2.30;;
27505;SDS011;14939;43.596;1.320;2023-04-15T08:39:17;13.60;;;1.98;;
27505;SDS011;14939;43.596;1.320;2023-04-15T08:41:46;14.40;;;2.13;;
27505;SDS011;14939;43.596;1.320;2023-04-15T08:44:32;15.40;;;2.72;;
27505;SDS011;14939;43.596;1.320;2023-04-15T08:47:02;12.48;;;2.08;;
27505;SDS011;14939;43.596;1.320;2023-04-15T08:51:57;9.77;;;1.67;;
27505;SDS011;14939;43.596;1.320;2023-04-15T08:54:24;17.45;;;1.83;;
27505;SDS011;14939;43.596;1.320;2023-04-15T08:56:51;12.30;;;1.70;;
27505;SDS011;14939;43.596;1.320;2023-04-15T08:59:17;14.43;;;1.80;;
27505;SDS011;14939;43.596;1.320;2023-04-15T09:01:45;10.48;;;1.85;;
27505;SDS011;14939;43.596;1.320;2023-04-15T09:04:12;12.02;;;1.90;;
27505;SDS011;14939;43.596;1.320;2023-04-15T09:06:38;8.25;;;1.60;;
27505;SDS011;14939;43.596;1.320;2023-04-15T09:09:05;9.70;;;2.15;;
27505;SDS011;14939;43.596;1.320;2023-04-15T09:11:31;10.20;;;1.83;;
27505;SDS011;14939;43.596;1.320;2023-04-15T09:13:57;11.50;;;2.17;;
27505;SDS011;14939;43.596;1.320;2023-04-15T09:16:22;16.33;;;2.63;;
27505;SDS011;14939;43.596;1.320;2023-04-15T09:18:48;11.27;;;2.08;;
27505;SDS011;14939;43.596;1.320;2023-04-15T09:21:15;10.65;;;2.22;;
27505;SDS011;14939;43.596;1.320;2023-04-15T09:23:57;8.43;;;1.85;;
27505;SDS011;14939;43.596;1.320;2023-04-15T09:26:31;13.82;;;1.88;;
27505;SDS011;14939;43.596;1.320;2023-04-15T09:34:00;5.90;;;1.33;;
27505;SDS011;14939;43.596;1.320;2023-04-15T09:36:27;11.50;;;2.47;;
27505;SDS011;14939;43.596;1.320;2023-04-15T09:38:57;11.88;;;1.80;;
27505;SDS011;14939;43.596;1.320;2023-04-15T09:41:24;11.10;;;1.83;;
27505;SDS011;14939;43.596;1.320;2023-04-15T09:43:50;8.93;;;1.80;;
27505;SDS011;14939;43.596;1.320;2023-04-15T09:46:17;7.28;;;1.70;;
27505;SDS011;14939;43.596;1.320;2023-04-15T09:48:43;9.43;;;1.85;;
27505;SDS011;14939;43.596;1.320;2023-04-15T09:51:08;9.55;;;1.75;;
27505;SDS011;14939;43.596;1.320;2023-04-15T09:53:34;7.50;;;1.52;;
27505;SDS011;14939;43.596;1.320;2023-04-15T09:56:02;11.80;;;2.10;;
27505;SDS011;14939;43.596;1.320;2023-04-15T09:58:29;8.88;;;1.90;;
27505;SDS011;14939;43.596;1.320;2023-04-15T10:00:56;8.70;;;1.58;;
27505;SDS011;14939;43.596;1.320;2023-04-15T10:03:24;10.60;;;1.80;;
27505;SDS011;14939;43.596;1.320;2023-04-15T10:05:56;12.00;;;1.80;;
27505;SDS011;14939;43.596;1.320;2023-04-15T10:08:24;8.18;;;1.77;;
27505;SDS011;14939;43.596;1.320;2023-04-15T10:10:52;9.65;;;2.10;;
27505;SDS011;14939;43.596;1.320;2023-04-15T10:13:18;13.60;;;2.03;;
27505;SDS011;14939;43.596;1.320;2023-04-15T10:16:09;11.82;;;1.60;;
27505;SDS011;14939;43.596;1.320;2023-04-15T10:18:41;6.20;;;1.50;;
27505;SDS011;14939;43.596;1.320;2023-04-15T10:21:12;8.38;;;1.52;;
27505;SDS011;14939;43.596;1.320;2023-04-15T10:23:42;11.95;;;1.85;;
27505;SDS011;14939;43.596;1.320;2023-04-15T10:26:11;8.15;;;1.65;;
27505;SDS011;14939;43.596;1.320;2023-04-15T10:28:39;12.18;;;1.63;;
27505;SDS011;14939;43.596;1.320;2023-04-15T10:31:05;5.55;;;1.45;;
27505;SDS011;14939;43.596;1.320;2023-04-15T10:33:31;8.02;;;1.38;;
27505;SDS011;14939;43.596;1.320;2023-04-15T10:35:59;13.05;;;1.60;;
27505;SDS011;14939;43.596;1.320;2023-04-15T10:38:32;5.50;;;1.30;;
27505;SDS011;14939;43.596;1.320;2023-04-15T10:41:44;7.90;;;1.40;;
27505;SDS011;14939;43.596;1.320;2023-04-15T10:43:49;8.70;;;1.50;;
27505;SDS011;14939;43.596;1.320;2023-04-15T10:46:23;8.85;;;1.70;;
27505;SDS011;14939;43.596;1.320;2023-04-15T10:49:13;8.57;;;1.40;;
27505;SDS011;14939;43.596;1.320;2023-04-15T10:51:43;7.18;;;1.48;;
27505;SDS011;14939;43.596;1.320;2023-04-15T10:54:13;7.53;;;1.70;;
27505;SDS011;14939;43.596;1.320;2023-04-15T10:56:41;6.82;;;1.35;;
27505;SDS011;14939;43.596;1.320;2023-04-15T10:59:08;9.98;;;1.50;;
27505;SDS011;14939;43.596;1.320;2023-04-15T11:01:50;7.50;;;1.45;;
27505;SDS011;14939;43.596;1.320;2023-04-15T11:04:55;8.65;;;1.35;;
27505;SDS011;14939;43.596;1.320;2023-04-15T11:15:36;9.48;;;1.50;;
27505;SDS011;14939;43.596;1.320;2023-04-15T11:20:41;9.90;;;1.90;;
27505;SDS011;14939;43.596;1.320;2023-04-15T11:23:09;6.22;;;1.10;;
27505;SDS011;14939;43.596;1.320;2023-04-15T11:25:36;7.03;;;1.13;;
27505;SDS011;14939;43.596;1.320;2023-04-15T11:28:01;7.82;;;1.40;;
27505;SDS011;14939;43.596;1.320;2023-04-15T11:30:33;7.88;;;1.40;;
27505;SDS011;14939;43.596;1.320;2023-04-15T11:33:04;6.60;;;1.30;;
27505;SDS011;14939;43.596;1.320;2023-04-15T11:35:32;8.70;;;1.40;;
27505;SDS011;14939;43.596;1.320;2023-04-15T11:38:02;6.90;;;1.73;;
27505;SDS011;14939;43.596;1.320;2023-04-15T11:40:29;8.13;;;2.03;;
27505;SDS011;14939;43.596;1.320;2023-04-15T11:45:37;7.07;;;1.20;;
27505;SDS011;14939;43.596;1.320;2023-04-15T11:48:24;8.02;;;1.30;;
27505;SDS011;14939;43.596;1.320;2023-04-15T11:53:21;12.52;;;1.70;;
27505;SDS011;14939;43.596;1.320;2023-04-15T11:55:49;8.18;;;1.25;;
27505;SDS011;14939;43.596;1.320;2023-04-15T11:58:19;6.60;;;1.60;;
27505;SDS011;14939;43.596;1.320;2023-04-15T12:00:48;8.80;;;1.30;;
27505;SDS011;14939;43.596;1.320;2023-04-15T12:11:31;7.63;;;1.73;;
27505;SDS011;14939;43.596;1.320;2023-04-15T12:16:49;6.60;;;1.40;;
27505;SDS011;14939;43.596;1.320;2023-04-15T12:19:22;4.55;;;1.27;;
27505;SDS011;14939;43.596;1.320;2023-04-15T12:21:48;9.73;;;1.80;;
27505;SDS011;14939;43.596;1.320;2023-04-15T12:24:14;4.55;;;1.20;;
27505;SDS011;14939;43.596;1.320;2023-04-15T12:26:44;5.85;;;1.42;;
27505;SDS011;14939;43.596;1.320;2023-04-15T12:29:12;8.20;;;1.40;;
27505;SDS011;14939;43.596;1.320;2023-04-15T12:31:47;6.45;;;1.23;;
27505;SDS011;14939;43.596;1.320;2023-04-15T12:34:18;8.18;;;1.60;;
27505;SDS011;14939;43.596;1.320;2023-04-15T12:36:57;6.10;;;1.38;;
27505;SDS011;14939;43.596;1.320;2023-04-15T12:39:26;7.78;;;1.50;;
27505;SDS011;14939;43.596;1.320;2023-04-15T12:41:53;5.60;;;1.08;;
27505;SDS011;14939;43.596;1.320;2023-04-15T12:44:19;5.95;;;1.23;;
27505;SDS011;14939;43.596;1.320;2023-04-15T12:46:46;5.53;;;1.45;;
27505;SDS011;14939;43.596;1.320;2023-04-15T12:49:12;5.72;;;1.20;;
27505;SDS011;14939;43.596;1.320;2023-04-15T12:51:44;7.25;;;1.20;;
27505;SDS011;14939;43.596;1.320;2023-04-15T12:54:09;3.83;;;1.48;;
27505;SDS011;14939;43.596;1.320;2023-04-15T12:56:35;5.78;;;1.55;;
27505;SDS011;14939;43.596;1.320;2023-04-15T12:59:01;8.27;;;1.70;;
27505;SDS011;14939;43.596;1.320;2023-04-15T13:01:27;4.88;;;1.40;;
27505;SDS011;14939;43.596;1.320;2023-04-15T13:03:52;5.82;;;1.38;;
27505;SDS011;14939;43.596;1.320;2023-04-15T13:06:18;9.52;;;1.40;;
27505;SDS011;14939;43.596;1.320;2023-04-15T13:08:44;5.35;;;1.67;;
27505;SDS011;14939;43.596;1.320;2023-04-15T13:11:10;5.68;;;1.30;;
27505;SDS011;14939;43.596;1.320;2023-04-15T13:13:36;7.78;;;1.45;;
27505;SDS011;14939;43.596;1.320;2023-04-15T13:16:01;6.22;;;1.40;;
27505;SDS011;14939;43.596;1.320;2023-04-15T13:18:27;6.10;;;1.40;;
27505;SDS011;14939;43.596;1.320;2023-04-15T13:20:55;4.45;;;1.13;;
27505;SDS011;14939;43.596;1.320;2023-04-15T13:23:21;6.43;;;1.40;;
27505;SDS011;14939;43.596;1.320;2023-04-15T13:25:46;8.55;;;1.50;;
27505;SDS011;14939;43.596;1.320;2023-04-15T13:28:12;6.80;;;1.40;;
27505;SDS011;14939;43.596;1.320;2023-04-15T13:30:38;7.38;;;1.70;;
27505;SDS011;14939;43.596;1.320;2023-04-15T13:33:04;4.88;;;1.02;;
27505;SDS011;14939;43.596;1.320;2023-04-15T13:35:31;5.35;;;1.35;;
27505;SDS011;14939;43.596;1.320;2023-04-15T13:37:57;3.95;;;1.27;;
27505;SDS011;14939;43.596;1.320;2023-04-15T13:40:22;6.15;;;1.30;;
27505;SDS011;14939;43.596;1.320;2023-04-15T13:42:48;6.75;;;1.70;;
27505;SDS011;14939;43.596;1.320;2023-04-15T13:45:15;4.45;;;1.40;;
27505;SDS011;14939;43.596;1.320;2023-04-15T13:47:41;6.22;;;1.40;;
27505;SDS011;14939;43.596;1.320;2023-04-15T13:50:07;5.18;;;1.33;;
27505;SDS011;14939;43.596;1.320;2023-04-15T13:52:33;6.30;;;1.20;;
27505;SDS011;14939;43.596;1.320;2023-04-15T13:54:59;3.45;;;1.05;;
27505;SDS011;14939;43.596;1.320;2023-04-15T13:57:24;4.15;;;1.20;;
27505;SDS011;14939;43.596;1.320;2023-04-15T13:59:50;5.63;;;1.23;;
27505;SDS011;14939;43.596;1.320;2023-04-15T14:02:16;5.38;;;1.33;;
27505;SDS011;14939;43.596;1.320;2023-04-15T14:04:42;3.55;;;1.20;;
27505;SDS011;14939;43.596;1.320;2023-04-15T14:07:08;5.18;;;1.23;;
27505;SDS011;14939;43.596;1.320;2023-04-15T14:09:33;5.18;;;1.40;;
27505;SDS011;14939;43.596;1.320;2023-04-15T14:11:59;6.57;;;1.20;;
27505;SDS011;14939;43.596;1.320;2023-04-15T14:14:26;6.53;;;1.70;;
27505;SDS011;14939;43.596;1.320;2023-04-15T14:16:51;4.40;;;1.55;;
27505;SDS011;14939;43.596;1.320;2023-04-15T14:19:19;3.45;;;1.00;;
27505;SDS011;14939;43.596;1.320;2023-04-15T14:21:44;6.50;;;1.40;;
27505;SDS011;14939;43.596;1.320;2023-04-15T14:24:10;4.93;;;1.30;;
27505;SDS011;14939;43.596;1.320;2023-04-15T14:26:36;5.57;;;1.35;;
27505;SDS011;14939;43.596;1.320;2023-04-15T14:29:01;7.95;;;1.58;;
27505;SDS011;14939;43.596;1.320;2023-04-15T14:31:27;6.18;;;1.00;;
27505;SDS011;14939;43.596;1.320;2023-04-15T14:33:53;6.07;;;1.40;;
27505;SDS011;14939;43.596;1.320;2023-04-15T14:36:18;6.22;;;1.50;;
27505;SDS011;14939;43.596;1.320;2023-04-15T14:38:44;7.50;;;1.85;;
27505;SDS011;14939;43.596;1.320;2023-04-15T14:41:10;5.90;;;1.02;;
27505;SDS011;14939;43.596;1.320;2023-04-15T14:43:36;4.47;;;1.02;;
27505;SDS011;14939;43.596;1.320;2023-04-15T14:46:02;3.92;;;1.00;;
27505;SDS011;14939;43.596;1.320;2023-04-15T14:48:28;7.28;;;1.30;;
27505;SDS011;14939;43.596;1.320;2023-04-15T14:50:55;4.20;;;1.58;;
27505;SDS011;14939;43.596;1.320;2023-04-15T14:53:21;5.70;;;1.40;;
27505;SDS011;14939;43.596;1.320;2023-04-15T14:55:47;4.28;;;1.20;;
27505;SDS011;14939;43.596;1.320;2023-04-15T14:58:13;6.57;;;1.52;;
27505;SDS011;14939;43.596;1.320;2023-04-15T15:00:38;4.78;;;1.70;;
27505;SDS011;14939;43.596;1.320;2023-04-15T15:03:06;3.83;;;1.38;;
27505;SDS011;14939;43.596;1.320;2023-04-15T15:05:43;4.78;;;1.40;;
27505;SDS011;14939;43.596;1.320;2023-04-15T15:08:11;5.88;;;1.30;;
27505;SDS011;14939;43.596;1.320;2023-04-15T15:10:38;6.80;;;1.42;;
27505;SDS011;14939;43.596;1.320;2023-04-15T15:13:08;6.53;;;1.58;;